Time;durP1;ratioP1;P1;durP2;ratioP2;P2;SDS_P1;SDS_P2;PMS_P1;PMS_P2;Temp;Humidity;BMP_temperature;BMP_pressure;BME280_temperature;BME280_humidity;BME280_pressure;Samples;Min_cycle;Max_cycle;Signal;HPM_P1;HPM_P2
2021/01/11 00:01:46;;;;;;;13.02;7.53;;;0.50;99.90;;;;;;4805766;29;20107;-89
2021/01/11 00:04:12;;;;;;;17.02;8.27;;;0.50;99.90;;;;;;4809523;29;20119;-89
2021/01/11 00:06:44;;;;;;;11.63;7.80;;;0.50;99.90;;;;;;4790751;29;20502;-88
2021/01/11 00:09:10;;;;;;;13.98;7.05;;;0.50;99.90;;;;;;4826402;29;20247;-88
2021/01/11 00:11:38;;;;;;;12.43;7.45;;;0.50;99.90;;;;;;4841105;29;20014;-86
2021/01/11 00:14:09;;;;;;;14.77;8.07;;;0.50;99.90;;;;;;4840399;29;20034;-89
2021/01/11 00:16:35;;;;;;;11.50;7.28;;;0.50;99.90;;;;;;4826513;29;20030;-88
2021/01/11 00:19:01;;;;;;;11.65;6.88;;;0.50;99.90;;;;;;4865303;29;20036;-89
2021/01/11 00:21:28;;;;;;;17.17;8.02;;;0.50;99.90;;;;;;4918220;29;20032;-89
2021/01/11 00:23:56;;;;;;;12.07;7.63;;;0.50;99.90;;;;;;4904955;29;20040;-88
2021/01/11 00:26:25;;;;;;;14.25;8.10;;;0.50;99.90;;;;;;4922024;29;20069;-89
2021/01/11 00:28:58;;;;;;;12.75;7.38;;;0.50;99.90;;;;;;4922032;29;20083;-89
2021/01/11 00:31:29;;;;;;;13.93;7.70;;;0.50;99.90;;;;;;4897284;29;20029;-88
2021/01/11 00:33:54;;;;;;;14.80;7.38;;;0.50;99.90;;;;;;4895790;29;20025;-88
2021/01/11 00:36:22;;;;;;;15.73;7.47;;;0.60;99.90;;;;;;4921034;29;20085;-88
2021/01/11 00:38:51;;;;;;;10.32;6.53;;;0.50;99.90;;;;;;4908296;29;20043;-88
2021/01/11 00:41:23;;;;;;;13.88;7.05;;;0.50;99.90;;;;;;4892383;29;20057;-88
2021/01/11 00:43:52;;;;;;;11.38;6.60;;;0.60;99.90;;;;;;4904494;29;20048;-88
2021/01/11 00:46:22;;;;;;;11.38;6.38;;;0.50;99.90;;;;;;4884014;29;20089;-89
2021/01/11 00:48:49;;;;;;;12.32;6.82;;;0.50;99.90;;;;;;4882165;29;20127;-88
2021/01/11 00:51:18;;;;;;;8.45;5.65;;;0.70;99.90;;;;;;4882003;29;20088;-91
2021/01/11 00:53:44;;;;;;;9.95;6.10;;;0.60;99.90;;;;;;4866239;29;20025;-90
2021/01/11 00:56:20;;;;;;;11.10;6.43;;;0.60;99.90;;;;;;4885536;29;20024;-92
2021/01/11 00:58:57;;;;;;;16.48;6.78;;;0.60;99.90;;;;;;4903279;29;20040;-90
2021/01/11 01:01:24;;;;;;;12.48;6.20;;;0.60;99.90;;;;;;4899428;29;20036;-91
2021/01/11 01:03:50;;;;;;;11.32;5.88;;;0.50;99.90;;;;;;4891677;29;20029;-91
2021/01/11 01:06:17;;;;;;;13.48;6.13;;;0.50;99.90;;;;;;4887413;29;20475;-90
2021/01/11 01:08:45;;;;;;;12.38;7.15;;;0.50;99.90;;;;;;4886291;29;20355;-91
2021/01/11 01:11:11;;;;;;;8.68;5.55;;;0.50;99.90;;;;;;4908735;29;20031;-90
2021/01/11 01:13:47;;;;;;;10.13;5.53;;;0.50;99.90;;;;;;4902514;29;20545;-92
2021/01/11 01:16:13;;;;;;;8.32;5.78;;;0.50;99.90;;;;;;4866060;29;20041;-93
2021/01/11 01:18:39;;;;;;;7.82;4.90;;;0.50;99.90;;;;;;4849991;29;20045;-92
2021/01/11 01:21:09;;;;;;;11.23;5.30;;;0.40;99.90;;;;;;4870038;29;20370;-92
2021/01/11 01:23:34;;;;;;;11.18;5.63;;;0.40;99.90;;;;;;4869202;29;20033;-92
2021/01/11 01:26:01;;;;;;;8.85;5.10;;;0.40;99.90;;;;;;4880841;29;20034;-91
2021/01/11 01:28:27;;;;;;;8.88;5.55;;;0.50;99.90;;;;;;4880441;29;20038;-91
2021/01/11 01:30:53;;;;;;;9.43;5.10;;;0.40;99.90;;;;;;4849103;29;20030;-91
2021/01/11 01:33:18;;;;;;;9.68;5.20;;;0.50;99.90;;;;;;4848862;29;20022;-90
2021/01/11 01:35:44;;;;;;;10.25;6.05;;;0.50;99.90;;;;;;4883744;29;20100;-89
2021/01/11 01:38:10;;;;;;;9.73;5.05;;;0.50;99.90;;;;;;4869601;29;20168;-93
2021/01/11 01:40:36;;;;;;;9.70;6.00;;;0.50;99.90;;;;;;4851243;29;20133;-92
2021/01/11 01:43:04;;;;;;;9.40;5.22;;;0.50;99.90;;;;;;4847109;29;20558;-91
2021/01/11 01:45:32;;;;;;;10.00;5.32;;;0.50;99.90;;;;;;4801450;29;20094;-91
2021/01/11 01:47:58;;;;;;;8.48;4.95;;;0.50;99.90;;;;;;4863242;29;20128;-88
2021/01/11 01:50:26;;;;;;;9.35;5.00;;;0.50;99.90;;;;;;4915803;29;20347;-92
2021/01/11 01:52:52;;;;;;;9.45;5.35;;;0.50;99.90;;;;;;4889887;29;20040;-91
2021/01/11 01:55:18;;;;;;;6.65;4.60;;;0.50;99.90;;;;;;4903177;29;20099;-91
2021/01/11 01:57:48;;;;;;;8.88;4.88;;;0.50;99.90;;;;;;4902025;29;20193;-90
2021/01/11 02:00:17;;;;;;;9.52;5.20;;;0.50;99.90;;;;;;4897600;29;20031;-91
2021/01/11 02:02:45;;;;;;;6.38;4.43;;;0.50;99.90;;;;;;4884628;29;20111;-90
2021/01/11 02:05:13;;;;;;;6.28;4.15;;;0.50;99.90;;;;;;4884527;29;20021;-90
2021/01/11 02:08:00;;;;;;;8.02;4.43;;;0.50;99.90;;;;;;4886637;29;20050;-89
2021/01/11 02:10:52;;;;;;;8.73;4.75;;;0.50;99.90;;;;;;4902260;29;20378;-89
2021/01/11 02:13:36;;;;;;;8.30;4.22;;;0.50;99.90;;;;;;4895873;29;20033;-90
2021/01/11 02:16:11;;;;;;;10.32;5.70;;;0.50;99.90;;;;;;4904224;29;20059;-89
2021/01/11 02:18:39;;;;;;;7.32;4.15;;;0.50;99.90;;;;;;4888763;29;20023;-90
2021/01/11 02:21:56;;;;;;;10.32;5.82;;;0.50;99.90;;;;;;4905256;29;20076;-91
2021/01/11 02:24:53;;;;;;;8.93;4.90;;;0.50;99.90;;;;;;4799337;29;20039;-90
2021/01/11 02:27:30;;;;;;;11.90;5.25;;;0.50;99.90;;;;;;4804866;29;20098;-89
2021/01/11 02:30:36;;;;;;;8.70;5.32;;;0.40;99.90;;;;;;4883031;29;20078;-90
2021/01/11 02:33:06;;;;;;;9.68;4.63;;;0.50;99.90;;;;;;4832287;29;20035;-89
2021/01/11 02:35:48;;;;;;;10.77;4.70;;;0.50;99.90;;;;;;4845009;29;20026;-88
2021/01/11 02:38:19;;;;;;;12.05;5.05;;;0.50;99.90;;;;;;4847512;29;20042;-89
2021/01/11 02:40:47;;;;;;;9.55;6.43;;;0.50;99.90;;;;;;4832215;29;20023;-89
2021/01/11 02:43:13;;;;;;;9.95;4.63;;;0.50;99.90;;;;;;4819730;29;20105;-89
2021/01/11 02:45:39;;;;;;;7.72;4.47;;;0.40;99.90;;;;;;4808398;29;20124;-89
2021/01/11 02:48:08;;;;;;;6.78;3.65;;;0.50;99.90;;;;;;4808210;29;20396;-91
2021/01/11 02:51:06;;;;;;;5.32;3.88;;;0.50;99.90;;;;;;4808996;29;20053;-90
2021/01/11 02:53:46;;;;;;;5.80;4.55;;;0.50;99.90;;;;;;4809904;29;20458;-90
2021/01/11 02:56:28;;;;;;;6.57;4.43;;;0.50;99.90;;;;;;4823983;29;20506;-90
2021/01/11 02:58:55;;;;;;;;;;;0.50;99.90;;;;;;4818460;29;20373;-90
2021/01/11 03:01:24;;;;;;;7.55;3.95;;;0.60;99.90;;;;;;4836869;29;19909;-90
2021/01/11 03:03:52;;;;;;;6.45;3.78;;;0.60;99.90;;;;;;4810223;29;20041;-89
2021/01/11 03:06:19;;;;;;;5.78;4.07;;;0.60;99.90;;;;;;4824287;29;20030;-89
2021/01/11 03:08:45;;;;;;;4.60;3.17;;;0.70;99.90;;;;;;4847029;29;20548;-90
2021/01/11 03:11:10;;;;;;;7.65;4.47;;;0.70;99.90;;;;;;4885185;29;20040;-89
2021/01/11 03:13:38;;;;;;;7.85;4.57;;;0.70;99.90;;;;;;4879327;29;20144;-90
2021/01/11 03:16:05;;;;;;;5.40;3.80;;;0.70;99.90;;;;;;4899030;29;20045;-90
2021/01/11 03:18:33;;;;;;;8.50;4.78;;;0.80;99.90;;;;;;4899068;29;20044;-90
2021/01/11 03:20:59;;;;;;;7.80;4.63;;;0.70;99.90;;;;;;4890689;29;20092;-90
2021/01/11 03:23:28;;;;;;;7.95;3.90;;;0.70;99.90;;;;;;4882705;29;20056;-88
2021/01/11 03:25:54;;;;;;;6.97;4.22;;;0.70;99.90;;;;;;4872627;29;20616;-85
2021/01/11 03:28:20;;;;;;;6.25;3.72;;;0.60;99.90;;;;;;4880068;29;20044;-89
2021/01/11 03:30:45;;;;;;;5.40;3.60;;;0.50;99.90;;;;;;4886414;29;20044;-88
2021/01/11 03:33:11;;;;;;;8.68;4.50;;;0.50;99.90;;;;;;4881182;29;20028;-87
2021/01/11 03:35:40;;;;;;;7.53;4.03;;;0.60;99.90;;;;;;4881265;29;20234;-87
2021/01/11 03:38:05;;;;;;;6.13;4.00;;;0.70;99.90;;;;;;4847213;29;20042;-87
2021/01/11 03:40:36;;;;;;;9.55;4.30;;;0.60;99.90;;;;;;4870323;29;20044;-88
2021/01/11 03:43:01;;;;;;;7.68;3.67;;;0.60;99.90;;;;;;4884753;29;20052;-90
2021/01/11 03:45:27;;;;;;;10.00;5.53;;;0.60;99.90;;;;;;4890688;29;20037;-89
2021/01/11 03:47:53;;;;;;;10.27;4.35;;;0.60;99.90;;;;;;4869733;29;20041;-88
2021/01/11 03:50:18;;;;;;;5.55;3.65;;;0.60;99.90;;;;;;4896710;29;20030;-89
2021/01/11 03:52:46;;;;;;;7.28;3.85;;;0.60;99.90;;;;;;4875773;29;20037;-88
2021/01/11 03:55:15;;;;;;;7.38;4.32;;;0.60;99.90;;;;;;4872088;29;20569;-89
2021/01/11 03:57:40;;;;;;;7.97;3.88;;;0.70;99.90;;;;;;4862494;29;20398;-88
2021/01/11 04:00:07;;;;;;;5.40;3.45;;;0.60;99.90;;;;;;4880923;29;20065;-89
2021/01/11 04:02:35;;;;;;;8.20;3.95;;;0.70;99.90;;;;;;4883331;29;20069;-89
2021/01/11 04:05:00;;;;;;;5.93;3.55;;;0.60;99.90;;;;;;4911615;29;20014;-88
2021/01/11 04:07:26;;;;;;;6.60;3.75;;;0.60;99.90;;;;;;4916448;29;20053;-88
2021/01/11 04:09:52;;;;;;;7.65;3.95;;;0.60;99.90;;;;;;4900886;29;20056;-88
2021/01/11 04:12:18;;;;;;;6.13;3.88;;;0.50;99.90;;;;;;4899387;29;20071;-88
2021/01/11 04:14:43;;;;;;;6.63;3.28;;;0.50;99.90;;;;;;4897893;29;20021;-89
2021/01/11 04:17:09;;;;;;;6.70;3.55;;;0.50;99.90;;;;;;4899976;29;20375;-87
2021/01/11 04:19:35;;;;;;;6.43;4.05;;;0.50;99.90;;;;;;4900411;29;20024;-88
2021/01/11 04:22:01;;;;;;;6.60;4.47;;;0.40;99.90;;;;;;4899985;29;20022;-90
2021/01/11 04:24:29;;;;;;;8.05;3.88;;;0.30;99.90;;;;;;4913759;29;20033;-89
2021/01/11 04:26:55;;;;;;;6.85;3.58;;;0.40;99.90;;;;;;4914487;29;20039;-89
2021/01/11 04:29:22;;;;;;;6.80;4.22;;;0.40;99.90;;;;;;4908069;29;20037;-90
2021/01/11 04:31:48;;;;;;;11.50;4.22;;;0.50;99.90;;;;;;4892832;29;20049;-88
2021/01/11 04:34:14;;;;;;;6.40;4.30;;;0.50;99.90;;;;;;4902289;29;20033;-89
2021/01/11 04:36:41;;;;;;;6.50;3.50;;;0.60;99.90;;;;;;4902505;29;20391;-88
2021/01/11 04:39:07;;;;;;;6.53;3.58;;;0.60;99.90;;;;;;4906502;29;20033;-89
2021/01/11 04:41:41;;;;;;;7.20;4.22;;;0.50;99.90;;;;;;4906291;29;20083;-90
2021/01/11 04:44:09;;;;;;;8.00;4.82;;;0.50;99.90;;;;;;4919101;29;20149;-89
2021/01/11 04:46:35;;;;;;;8.15;3.75;;;0.40;99.90;;;;;;4922965;29;20092;-89
2021/01/11 04:49:03;;;;;;;6.32;3.47;;;0.40;99.90;;;;;;4923148;29;20098;-89
2021/01/11 04:51:32;;;;;;;5.65;3.45;;;0.30;99.90;;;;;;4923318;29;20092;-87
2021/01/11 04:54:02;;;;;;;8.05;4.10;;;0.30;99.90;;;;;;4896282;29;20037;-89
2021/01/11 04:56:29;;;;;;;5.68;3.80;;;0.20;99.90;;;;;;4886949;29;20037;-88
2021/01/11 04:58:57;;;;;;;6.22;3.67;;;0.20;99.90;;;;;;4892120;29;20048;-90
2021/01/11 05:01:28;;;;;;;6.53;4.13;;;0.10;99.90;;;;;;4907844;29;20017;-89
2021/01/11 05:04:02;;;;;;;9.10;4.35;;;-0.10;99.90;;;;;;4908388;29;20040;-88
2021/01/11 05:06:29;;;;;;;10.07;4.78;;;-0.20;99.90;;;;;;4906275;29;20217;-87
2021/01/11 05:09:08;;;;;;;8.13;4.68;;;-0.30;99.90;;;;;;4890045;29;20052;-88
2021/01/11 05:11:37;;;;;;;7.18;4.38;;;-0.40;99.90;;;;;;4903114;29;20063;-88
2021/01/11 05:14:06;;;;;;;10.82;4.60;;;-0.50;99.90;;;;;;4888815;29;20047;-88
2021/01/11 05:16:34;;;;;;;8.68;4.85;;;-0.60;99.90;;;;;;4887929;29;20029;-88
2021/01/11 05:19:25;;;;;;;9.07;4.25;;;-0.50;99.90;;;;;;4885461;29;20103;-87
2021/01/11 05:21:52;;;;;;;9.90;4.97;;;-0.60;99.90;;;;;;4885536;29;20100;-88
2021/01/11 05:24:40;;;;;;;9.00;5.00;;;-0.80;99.90;;;;;;4902867;29;20028;-90
2021/01/11 05:27:16;;;;;;;8.10;4.35;;;-0.90;99.90;;;;;;4886655;29;20044;-89
2021/01/11 05:29:41;;;;;;;8.43;4.75;;;-1.00;99.90;;;;;;4896081;29;20024;-89
2021/01/11 05:32:08;;;;;;;10.00;4.47;;;-1.00;99.90;;;;;;4897445;29;20032;-89
2021/01/11 05:35:03;;;;;;;11.63;5.00;;;-1.00;99.90;;;;;;4887439;29;20024;-87
2021/01/11 05:37:44;;;;;;;8.68;4.30;;;-0.90;99.90;;;;;;4901139;29;20040;-85
2021/01/11 05:40:17;;;;;;;8.15;4.20;;;-0.90;99.90;;;;;;4887788;29;20033;-88
2021/01/11 05:42:52;;;;;;;9.95;5.10;;;-1.00;99.90;;;;;;4904734;29;20115;-87
2021/01/11 05:45:24;;;;;;;9.10;5.15;;;-1.00;99.90;;;;;;4919115;29;20021;-88
2021/01/11 05:48:09;;;;;;;7.07;4.45;;;-1.00;99.90;;;;;;4917646;29;20028;-88
2021/01/11 05:50:37;;;;;;;11.13;6.57;;;-1.00;99.90;;;;;;4906527;29;20013;-89
2021/01/11 05:53:20;;;;;;;10.80;6.03;;;-1.00;99.90;;;;;;4923931;29;20068;-88
2021/01/11 05:56:15;;;;;;;8.23;5.43;;;-0.90;99.90;;;;;;4906477;29;20032;-88
2021/01/11 05:59:14;;;;;;;7.28;4.68;;;-0.90;99.90;;;;;;4911119;29;20016;-91
2021/01/11 06:01:40;;;;;;;9.30;4.55;;;-0.90;99.90;;;;;;4866046;29;20142;-91
2021/01/11 06:04:20;;;;;;;9.68;5.45;;;-0.80;99.90;;;;;;4876953;29;20034;-92
2021/01/11 06:07:23;;;;;;;;;;;;;;;;;;;;;
2021/01/11 06:11:07;;;;;;;;;;;;;;;;;;;;;
2021/01/11 06:12:58;;;;;;;8.15;4.95;;;-0.90;99.90;;;;;;4816003;29;20050;-90
2021/01/11 06:16:14;;;;;;;;;;;;;;;;;;;;;
2021/01/11 06:21:50;;;;;;;9.30;5.03;;;-0.70;99.90;;;;;;4747467;30;20372;-91
2021/01/11 06:24:39;;;;;;;14.00;6.85;;;-0.60;99.90;;;;;;4744711;30;20338;-88
2021/01/11 06:31:31;;;;;;;;;;;;;;;;;;;;;
2021/01/11 06:34:34;;;;;;;10.73;5.45;;;-0.70;99.90;;;;;;4732784;30;20045;-88
2021/01/11 06:40:08;;;;;;;7.57;5.05;;;-0.60;99.90;;;;;;4675795;30;20098;-87
2021/01/11 06:43:30;;;;;;;8.20;4.72;;;-0.60;99.90;;;;;;4692386;30;20102;-88
2021/01/11 06:47:25;;;;;;;9.05;5.07;;;-0.50;99.90;;;;;;4676159;30;20049;-89
2021/01/11 06:50:01;;;;;;;12.40;5.53;;;-0.70;99.90;;;;;;4656699;30;20072;-90
2021/01/11 06:52:37;;;;;;;12.13;6.00;;;-0.60;99.90;;;;;;4656483;30;20058;-88
2021/01/11 06:55:19;;;;;;;13.60;6.45;;;-0.70;99.90;;;;;;4661528;30;20065;-88
2021/01/11 06:58:00;;;;;;;10.70;5.38;;;-0.80;99.90;;;;;;4657276;30;20077;-90
2021/01/11 07:00:34;;;;;;;12.70;6.90;;;-0.90;99.90;;;;;;4642605;30;20075;-90
2021/01/11 07:06:27;;;;;;;13.32;6.70;;;-1.00;99.90;;;;;;4630943;30;20056;-90
2021/01/11 07:09:11;;;;;;;10.43;5.95;;;-1.00;99.90;;;;;;4648961;30;20059;-90
2021/01/11 07:12:06;;;;;;;10.95;6.65;;;-1.00;99.90;;;;;;4650332;30;20043;-89
2021/01/11 07:14:59;;;;;;;11.73;7.03;;;-1.10;99.90;;;;;;4673506;30;20050;-86
2021/01/11 07:18:00;;;;;;;13.10;7.07;;;-1.10;99.90;;;;;;4662915;30;20232;-86
2021/01/11 07:20:46;;;;;;;11.48;6.70;;;-1.10;99.90;;;;;;4661693;30;20098;-89
2021/01/11 07:23:25;;;;;;;13.30;7.15;;;-1.10;99.90;;;;;;4677930;30;20038;-86
2021/01/11 07:26:21;;;;;;;16.10;7.10;;;-1.10;99.90;;;;;;4726399;30;20147;-87
2021/01/11 07:29:02;;;;;;;10.30;6.43;;;-0.90;99.90;;;;;;4745800;30;20051;-87
2021/01/11 07:31:32;;;;;;;12.35;7.22;;;-0.80;99.90;;;;;;4749671;30;20051;-89
2021/01/11 07:34:32;;;;;;;12.82;5.75;;;-0.70;99.90;;;;;;4731259;30;20037;-89
2021/01/11 07:40:07;;;;;;;15.10;8.13;;;-0.60;99.90;;;;;;4757436;30;20071;-89
2021/01/11 07:53:55;;;;;;;16.00;8.00;;;-0.30;99.90;;;;;;4842087;29;20058;-91
2021/01/11 07:56:29;;;;;;;17.58;8.40;;;-0.20;99.90;;;;;;4839163;29;20047;-89
2021/01/11 07:59:05;;;;;;;14.45;8.00;;;-0.10;99.90;;;;;;4831434;29;20060;-89
2021/01/11 08:01:56;;;;;;;13.52;7.00;;;-0.10;99.90;;;;;;4813647;29;20030;-89
2021/01/11 08:07:22;;;;;;;21.35;7.88;;;0.10;99.90;;;;;;4821262;29;20035;-89
2021/01/11 08:09:57;;;;;;;20.27;9.43;;;0.10;99.90;;;;;;4812718;29;20039;-88
2021/01/11 08:12:26;;;;;;;18.33;8.23;;;0.20;99.90;;;;;;4787971;29;20100;-88
2021/01/11 08:15:41;;;;;;;11.55;6.03;;;0.30;99.90;;;;;;4788370;29;20046;-89
2021/01/11 08:18:24;;;;;;;17.20;7.88;;;0.30;99.90;;;;;;4800317;30;20116;-91
2021/01/11 08:21:16;;;;;;;17.77;6.35;;;0.40;99.90;;;;;;4785798;29;20055;-90
2021/01/11 08:27:09;;;;;;;15.90;7.15;;;0.60;99.90;;;;;;4780592;29;19932;-89
2021/01/11 09:05:26;;;;;;;16.48;7.72;;;1.50;99.90;;;;;;5780069;23;20048;-90
2021/01/11 09:07:55;;;;;;;17.70;8.45;;;1.60;99.90;;;;;;4832540;29;20053;-90
2021/01/11 09:10:45;;;;;;;15.35;6.90;;;1.60;99.90;;;;;;4861682;29;20488;-87
2021/01/11 09:13:32;;;;;;;9.85;6.10;;;1.50;99.90;;;;;;4808672;29;20077;-87
2021/01/11 09:16:14;;;;;;;12.93;6.97;;;1.50;99.90;;;;;;4815852;29;20030;-86
2021/01/11 09:18:58;;;;;;;;;;;;;;;;;;;;;
2021/01/11 09:21:39;;;;;;;;;;;;;;;;;;;;;
2021/01/11 09:24:44;;;;;;;12.70;6.95;;;1.30;99.90;;;;;;4828539;29;20111;-87
2021/01/11 09:27:17;;;;;;;13.07;6.75;;;1.40;99.90;;;;;;4765439;30;20027;-90
2021/01/11 09:29:46;;;;;;;14.02;6.70;;;1.40;99.90;;;;;;4762616;30;20039;-82
2021/01/11 09:32:21;;;;;;;14.15;8.20;;;1.50;99.90;;;;;;4778199;30;20110;-84
2021/01/11 09:34:49;;;;;;;14.85;6.38;;;1.60;99.90;;;;;;4779062;30;20065;-88
2021/01/11 09:41:12;;;;;;;12.38;7.03;;;1.60;99.90;;;;;;4764942;30;20105;-89
2021/01/11 09:43:38;;;;;;;11.68;5.65;;;1.60;99.90;;;;;;4734905;30;20047;-89
2021/01/11 09:46:28;;;;;;;11.55;5.25;;;1.70;99.90;;;;;;4755740;30;20032;-90
2021/01/11 09:49:58;;;;;;;8.85;5.20;;;1.80;99.90;;;;;;4756899;30;20126;-87
2021/01/11 09:52:35;;;;;;;11.65;5.57;;;1.80;99.90;;;;;;4726486;30;20057;-90
2021/01/11 09:55:17;;;;;;;7.75;5.05;;;1.90;99.90;;;;;;4725689;30;20056;-89
2021/01/11 09:58:21;;;;;;;9.57;5.10;;;1.90;99.90;;;;;;4747362;30;20113;-87
2021/01/11 10:01:17;;;;;;;;;;;;;;;;;;;;;
2021/01/11 10:04:03;;;;;;;11.38;5.10;;;2.00;99.90;;;;;;4777462;30;20119;-90
2021/01/11 10:06:54;;;;;;;9.07;5.85;;;2.10;99.90;;;;;;4777806;30;20123;-89
2021/01/11 10:09:24;;;;;;;12.77;5.30;;;2.20;99.90;;;;;;4877196;23;20057;-89
2021/01/11 10:11:57;;;;;;;10.13;5.55;;;2.20;99.90;;;;;;4926424;23;20037;-90
2021/01/11 10:14:25;;;;;;;13.07;5.82;;;2.20;99.90;;;;;;4941005;23;20237;-87
2021/01/11 10:17:52;;;;;;;;;;;;;;;;;;;;;
2021/01/11 10:19:43;;;;;;;12.80;6.20;;;2.20;99.90;;;;;;4887575;29;20037;-87
2021/01/11 10:22:28;;;;;;;8.55;5.20;;;2.20;99.90;;;;;;4881364;29;20029;-89
2021/01/11 10:24:57;;;;;;;14.65;8.40;;;2.20;99.90;;;;;;4903970;29;20056;-90
2021/01/11 10:27:22;;;;;;;10.82;5.82;;;2.20;99.90;;;;;;4882600;29;20057;-87
2021/01/11 10:29:48;;;;;;;16.75;6.60;;;2.30;99.90;;;;;;4926079;23;20045;-88
2021/01/11 10:32:42;;;;;;;10.25;5.57;;;2.40;99.90;;;;;;4896477;29;20029;-90
2021/01/11 10:35:25;;;;;;;11.10;5.47;;;2.50;99.90;;;;;;4880674;29;20053;-89
2021/01/11 10:37:51;;;;;;;9.88;5.45;;;2.60;99.90;;;;;;4900880;29;20100;-88
2021/01/11 10:40:36;;;;;;;9.23;5.65;;;2.70;99.90;;;;;;4903829;29;20033;-89
2021/01/11 10:43:04;;;;;;;10.68;6.50;;;2.80;99.90;;;;;;4892325;29;20037;-87
2021/01/11 10:45:31;;;;;;;8.75;5.60;;;2.80;99.90;;;;;;4892166;29;20041;-90
2021/01/11 10:47:57;;;;;;;10.95;5.63;;;2.80;99.90;;;;;;4879679;29;20087;-90
2021/01/11 10:50:30;;;;;;;10.63;5.38;;;2.80;99.90;;;;;;4895374;29;20104;-88
2021/01/11 10:52:56;;;;;;;8.52;5.70;;;2.70;99.90;;;;;;4876536;29;20065;-90
2021/01/11 10:55:24;;;;;;;12.52;6.32;;;2.70;99.90;;;;;;4897780;29;20097;-91
2021/01/11 10:57:58;;;;;;;9.73;5.35;;;2.70;99.90;;;;;;4889638;29;20092;-88
2021/01/11 11:00:29;;;;;;;9.98;5.63;;;2.60;99.90;;;;;;4870706;29;20048;-89
2021/01/11 11:02:58;;;;;;;9.32;5.63;;;2.60;99.90;;;;;;4887763;29;20048;-90
2021/01/11 11:05:25;;;;;;;9.98;5.53;;;2.60;99.90;;;;;;4877500;29;20040;-89
2021/01/11 11:08:19;;;;;;;;;;;;;;;;;;;;;
2021/01/11 11:11:14;;;;;;;9.82;5.35;;;2.70;99.90;;;;;;4886426;29;20076;-91
2021/01/11 11:14:35;;;;;;;;;;;;;;;;;;;;;
2021/01/11 11:17:14;;;;;;;;;;;;;;;;;;;;;
2021/01/11 11:20:00;;;;;;;13.32;6.32;;;2.70;99.90;;;;;;4894109;29;20115;-91
2021/01/11 11:22:41;;;;;;;12.68;6.00;;;2.70;99.90;;;;;;4896388;29;20025;-95
2021/01/11 11:25:16;;;;;;;18.33;7.13;;;2.70;99.90;;;;;;4902460;29;20069;-89
2021/01/11 11:27:42;;;;;;;11.70;5.13;;;2.60;99.90;;;;;;4897438;29;20044;-88
2021/01/11 11:30:11;;;;;;;11.75;6.25;;;2.60;99.90;;;;;;4890836;29;20057;-87
2021/01/11 11:32:41;;;;;;;8.98;5.55;;;2.60;99.90;;;;;;4889660;29;20029;-88
2021/01/11 11:35:09;;;;;;;6.78;4.15;;;2.60;99.90;;;;;;4882021;29;20029;-92
2021/01/11 11:37:56;;;;;;;11.05;5.32;;;2.70;99.90;;;;;;4889960;29;20042;-91
2021/01/11 11:40:22;;;;;;;12.48;5.93;;;2.70;99.90;;;;;;4891337;29;20024;-91
2021/01/11 11:42:59;;;;;;;10.00;5.43;;;2.70;99.90;;;;;;4891512;29;20043;-93
2021/01/11 11:49:25;;;;;;;11.57;6.25;;;2.80;99.90;;;;;;4915450;29;19932;-93
2021/01/11 11:55:30;;;;;;;;;;;2.80;99.90;;;;;;4990235;23;20214;-84
2021/01/11 11:57:57;;;;;;;11.90;5.47;;;2.80;99.90;;;;;;4923532;29;19949;-83
2021/01/11 12:00:38;;;;;;;;;;;;;;;;;;;;;
2021/01/11 12:03:04;;;;;;;12.77;6.55;;;2.90;99.90;;;;;;4922612;29;20027;-89
2021/01/11 12:05:58;;;;;;;10.50;5.82;;;2.80;99.90;;;;;;4906062;29;20028;-90
2021/01/11 12:08:24;;;;;;;7.95;4.95;;;2.90;99.90;;;;;;4906079;29;20054;-89
2021/01/11 12:10:49;;;;;;;14.05;6.25;;;2.80;99.90;;;;;;4905495;29;20044;-90
2021/01/11 12:13:16;;;;;;;11.13;5.30;;;2.90;99.90;;;;;;4920355;29;20043;-90
2021/01/11 12:15:43;;;;;;;11.40;5.90;;;3.00;99.90;;;;;;4894019;29;20053;-91
2021/01/11 12:18:12;;;;;;;12.88;6.22;;;3.00;99.90;;;;;;4875371;29;20037;-90
2021/01/11 12:20:44;;;;;;;10.65;5.55;;;3.10;99.90;;;;;;4898859;29;20021;-89
2021/01/11 12:23:14;;;;;;;9.63;5.75;;;3.20;99.90;;;;;;4904001;29;20035;-89
2021/01/11 12:28:35;;;;;;;10.18;6.07;;;3.30;99.90;;;;;;4921821;23;20048;-91
2021/01/11 13:28:04;;;;;;;12.18;6.53;;;3.70;99.90;;;;;;5237129;23;20057;-87
2021/01/11 13:30:40;;;;;;;10.48;5.80;;;3.70;99.90;;;;;;5000180;23;20059;-85
2021/01/11 13:33:06;;;;;;;9.55;5.75;;;3.80;99.90;;;;;;5074904;23;20049;-91
2021/01/11 13:36:01;;;;;;;11.88;6.22;;;3.80;99.90;;;;;;4887367;29;20013;-93
2021/01/11 13:51:58;;;;;;;11.68;6.57;;;3.80;99.90;;;;;;4894031;29;20057;-89
2021/01/11 13:54:58;;;;;;;;;;;;;;;;;;;;;
2021/01/11 14:52:57;;;;;;;;;;;;;;;;;;;;;
2021/01/11 14:58:49;;;;;;;;;;;4.10;99.90;;;;;;4843425;29;20266;-91
2021/01/11 15:01:27;;;;;;;11.90;6.70;;;4.10;99.90;;;;;;5054214;23;19962;-92
2021/01/11 15:07:14;;;;;;;16.42;8.63;;;4.20;99.90;;;;;;4843815;29;20034;-91
2021/01/11 15:13:10;;;;;;;14.82;8.75;;;4.30;99.90;;;;;;4944398;23;20153;-88
2021/01/11 15:15:36;;;;;;;14.43;7.97;;;4.20;99.90;;;;;;4887015;29;20033;-90
2021/01/11 15:18:05;;;;;;;16.33;8.60;;;4.20;99.90;;;;;;4901614;29;20088;-92
2021/01/11 15:20:31;;;;;;;15.68;9.15;;;4.20;99.90;;;;;;4864185;29;20040;-92
2021/01/11 15:23:09;;;;;;;;;;;;;;;;;;;;;
2021/01/11 15:26:25;;;;;;;13.23;7.78;;;4.20;99.90;;;;;;4896479;29;20073;-94
2021/01/11 15:28:56;;;;;;;15.05;8.27;;;4.20;99.90;;;;;;4823755;29;20045;-94
2021/01/11 15:31:27;;;;;;;15.52;7.72;;;4.10;99.90;;;;;;5001125;23;20038;-89
2021/01/11 15:34:00;;;;;;;14.70;8.15;;;4.10;99.90;;;;;;4883040;29;20095;-93
2021/01/11 15:36:57;;;;;;;;;;;;;;;;;;;;;
2021/01/11 15:39:28;;;;;;;13.52;8.15;;;4.10;99.90;;;;;;4868882;29;20120;-95
2021/01/11 15:41:54;;;;;;;15.67;8.53;;;4.20;99.90;;;;;;4873501;29;20033;-95
2021/01/11 15:44:20;;;;;;;15.60;7.78;;;4.10;99.90;;;;;;4851818;29;20284;-95
2021/01/11 15:47:18;;;;;;;;;;;;;;;;;;;;;
2021/01/11 15:50:05;;;;;;;;;;;;;;;;;;;;;
2021/01/11 15:52:50;;;;;;;12.93;7.22;;;4.20;99.90;;;;;;4816009;29;20080;-96
2021/01/11 15:55:17;;;;;;;14.95;8.50;;;4.10;99.90;;;;;;4843020;29;20039;-93
2021/01/11 15:57:43;;;;;;;14.63;8.52;;;4.20;99.90;;;;;;4814654;29;20047;-94
2021/01/11 17:14:02;;;;;;;12.45;7.13;;;4.20;99.90;;;;;;5711518;23;20044;-95
2021/01/11 17:16:29;;;;;;;14.35;8.85;;;4.20;99.90;;;;;;5005255;23;20121;-90
2021/01/11 17:18:56;;;;;;;14.23;7.70;;;4.20;99.90;;;;;;4872997;29;20025;-89
2021/01/11 17:21:29;;;;;;;10.65;6.32;;;4.10;99.90;;;;;;4868245;29;20022;-93
2021/01/11 17:24:01;;;;;;;13.40;6.88;;;4.20;99.90;;;;;;4885023;29;20196;-94
2021/01/11 17:26:31;;;;;;;13.27;7.22;;;4.20;99.90;;;;;;4884892;29;20018;-94
2021/01/11 17:29:02;;;;;;;11.68;7.10;;;4.20;99.90;;;;;;4885113;29;20097;-91
2021/01/11 17:31:29;;;;;;;12.48;6.93;;;4.20;99.90;;;;;;4887612;29;20089;-91
2021/01/11 17:33:57;;;;;;;10.80;6.38;;;4.20;99.90;;;;;;4895417;29;20018;-92
2021/01/11 17:36:25;;;;;;;9.90;6.32;;;4.30;99.90;;;;;;4892208;29;20165;-92
2021/01/11 17:38:52;;;;;;;11.00;7.15;;;4.30;99.90;;;;;;4880472;29;20083;-91
2021/01/11 17:41:29;;;;;;;11.88;6.63;;;4.30;99.90;;;;;;4862647;29;20038;-92
2021/01/11 17:44:05;;;;;;;;;;;;;;;;;;;;;
2021/01/11 17:46:31;;;;;;;12.05;7.15;;;4.30;99.90;;;;;;4872582;29;20112;-92
2021/01/11 17:48:57;;;;;;;11.82;6.95;;;4.30;99.90;;;;;;4880848;29;20017;-92
2021/01/11 17:51:30;;;;;;;12.75;6.43;;;4.30;99.90;;;;;;4863182;29;20070;-92
2021/01/11 17:53:58;;;;;;;12.05;6.28;;;4.30;99.90;;;;;;4828353;29;20380;-93
2021/01/11 17:56:24;;;;;;;12.82;6.82;;;4.30;99.90;;;;;;4869456;29;20053;-94
2021/01/11 17:58:51;;;;;;;12.30;6.95;;;4.30;99.90;;;;;;4859213;29;20182;-93
2021/01/11 18:01:18;;;;;;;10.55;6.35;;;4.40;99.90;;;;;;4860017;29;20022;-92
2021/01/11 18:03:47;;;;;;;11.13;7.18;;;4.40;99.90;;;;;;4863968;29;20065;-94
2021/01/11 18:06:16;;;;;;;12.10;7.68;;;4.40;99.90;;;;;;4938025;23;20052;-94
2021/01/11 18:08:42;;;;;;;14.57;7.70;;;4.40;99.90;;;;;;4898968;29;20088;-92
2021/01/11 18:11:43;;;;;;;12.68;7.00;;;4.40;99.90;;;;;;4910910;29;20038;-93
2021/01/11 18:14:21;;;;;;;16.95;8.07;;;4.40;99.90;;;;;;4884395;29;20123;-92
2021/01/11 18:16:48;;;;;;;10.60;6.55;;;4.60;99.90;;;;;;4917232;29;20048;-89
2021/01/11 18:19:19;;;;;;;11.90;6.47;;;4.50;99.90;;;;;;4921078;29;20039;-91
2021/01/11 18:21:58;;;;;;;;;;;;;;;;;;;;;
2021/01/11 18:24:31;;;;;;;19.50;7.90;;;4.60;99.90;;;;;;4912110;29;20052;-92
2021/01/11 18:26:57;;;;;;;8.63;5.97;;;4.60;99.90;;;;;;4903441;29;20021;-93
2021/01/11 18:29:25;;;;;;;9.00;6.28;;;4.60;99.90;;;;;;4897398;29;20024;-92
2021/01/11 18:31:57;;;;;;;12.02;6.63;;;4.50;99.90;;;;;;4896566;29;20096;-91
2021/01/11 18:34:28;;;;;;;11.35;6.30;;;4.50;99.90;;;;;;4938966;23;20061;-92
2021/01/11 18:36:57;;;;;;;9.77;5.93;;;4.60;99.90;;;;;;4869272;29;20033;-88
2021/01/11 18:39:23;;;;;;;13.32;6.03;;;4.60;99.90;;;;;;4857011;29;20030;-90
2021/01/11 18:41:54;;;;;;;8.48;5.30;;;4.60;99.90;;;;;;4875043;29;20017;-91
2021/01/11 18:44:21;;;;;;;7.70;5.33;;;4.60;99.90;;;;;;4866746;29;20021;-88
2021/01/11 18:46:52;;;;;;;10.40;6.13;;;4.60;99.90;;;;;;4838830;29;20113;-89